createdAt,value
2018-10-06T00:00:33.217Z,13.43
2018-10-06T00:01:33.172Z,13.42
2018-10-06T00:02:33.123Z,13.40
2018-10-06T00:03:33.080Z,13.40
2018-10-06T00:04:33.036Z,13.39
2018-10-06T00:05:32.989Z,13.33
2018-10-06T00:06:32.944Z,13.31
2018-10-06T00:07:32.997Z,13.31
2018-10-06T00:08:32.855Z,13.30
2018-10-06T00:09:32.810Z,13.31
2018-10-06T00:10:32.764Z,13.24
2018-10-06T00:11:32.956Z,13.28
2018-10-06T00:12:32.675Z,13.20
2018-10-06T00:13:32.630Z,13.26
2018-10-06T00:14:32.588Z,13.16
2018-10-06T00:15:32.540Z,13.17
2018-10-06T00:16:32.496Z,13.27
2018-10-06T00:17:32.465Z,13.17
2018-10-06T00:18:32.410Z,13.13
2018-10-06T00:19:32.359Z,13.13
2018-10-06T00:20:32.318Z,13.20
2018-10-06T00:21:32.273Z,13.12
2018-10-06T00:22:32.225Z,13.01
2018-10-06T00:23:32.188Z,13.01
2018-10-06T00:24:32.135Z,13.01
2018-10-06T00:25:32.090Z,12.98
2018-10-06T00:26:32.043Z,13.02
2018-10-06T00:27:32.002Z,12.88
2018-10-06T00:28:31.954Z,12.91
2018-10-06T00:29:31.909Z,12.93
2018-10-06T00:30:31.866Z,12.87
2018-10-06T00:31:31.820Z,12.88
2018-10-06T00:32:31.775Z,12.90
2018-10-06T00:33:31.729Z,12.88
2018-10-06T00:34:31.737Z,12.84
2018-10-06T00:35:31.638Z,12.81
2018-10-06T00:36:31.596Z,12.94
2018-10-06T00:37:31.548Z,12.86
2018-10-06T00:38:31.502Z,12.83
2018-10-06T00:39:31.460Z,12.78
2018-10-06T00:40:31.415Z,12.75
2018-10-06T00:41:31.366Z,12.72
2018-10-06T00:42:31.323Z,12.73
2018-10-06T00:43:31.277Z,12.72
2018-10-06T00:44:31.233Z,12.76
2018-10-06T00:45:31.214Z,12.72
2018-10-06T00:46:31.141Z,12.66
2018-10-06T00:47:31.097Z,12.66
2018-10-06T00:48:31.057Z,12.61
2018-10-06T00:49:31.005Z,12.61
2018-10-06T00:50:30.961Z,12.63
2018-10-06T00:51:30.919Z,12.62
2018-10-06T00:52:31.054Z,12.68
2018-10-06T00:53:30.827Z,12.54
2018-10-06T00:54:30.779Z,12.62
2018-10-06T00:55:30.734Z,12.58
2018-10-06T00:56:30.691Z,12.61
2018-10-06T00:57:30.650Z,12.61
2018-10-06T00:58:30.600Z,12.53
2018-10-06T00:59:30.555Z,12.48
2018-10-06T01:00:30.573Z,12.51
2018-10-06T01:01:30.461Z,12.44
2018-10-06T01:02:30.422Z,12.50
2018-10-06T01:03:30.372Z,12.39
2018-10-06T01:04:30.328Z,12.43
2018-10-06T01:05:30.282Z,12.44
2018-10-06T01:06:30.236Z,12.43
2018-10-06T01:07:30.192Z,12.39
2018-10-06T01:08:30.148Z,12.48
2018-10-06T01:09:30.099Z,12.39
2018-10-06T01:10:30.065Z,12.39
2018-10-06T01:11:30.011Z,12.29
2018-10-06T01:12:29.964Z,12.39
2018-10-06T01:13:29.923Z,12.35
2018-10-06T01:14:29.879Z,12.26
2018-10-06T01:15:29.893Z,12.30
2018-10-06T01:16:29.783Z,12.30
2018-10-06T01:17:29.737Z,12.28
2018-10-06T01:18:29.693Z,12.21
2018-10-06T01:19:29.647Z,12.33
2018-10-06T01:20:29.602Z,12.25
2018-10-06T01:21:29.562Z,12.23
2018-10-06T01:22:29.512Z,12.18
2018-10-06T01:23:29.468Z,12.20
2018-10-06T01:24:29.420Z,12.17
2018-10-06T01:25:29.373Z,12.18
2018-10-06T01:26:29.330Z,12.20
2018-10-06T01:27:29.283Z,12.15
2018-10-06T01:28:29.241Z,12.21
2018-10-06T01:29:29.192Z,12.17
2018-10-06T01:30:29.148Z,12.20
2018-10-06T01:31:29.104Z,12.15
2018-10-06T01:32:29.061Z,12.14
2018-10-06T01:33:29.015Z,12.18
2018-10-06T01:34:28.964Z,12.15
2018-10-06T01:35:28.919Z,12.18
2018-10-06T01:36:28.875Z,12.17
2018-10-06T01:37:28.830Z,12.17
2018-10-06T01:38:28.804Z,12.17
2018-10-06T01:39:28.737Z,12.10
2018-10-06T01:40:28.700Z,12.05
2018-10-06T01:41:28.647Z,12.12
2018-10-06T01:42:28.602Z,12.17
2018-10-06T01:43:28.556Z,12.12
2018-10-06T01:44:28.518Z,12.05
2018-10-06T01:45:28.464Z,12.10
2018-10-06T01:46:28.421Z,12.00
2018-10-06T01:47:28.376Z,12.02
2018-10-06T01:48:28.331Z,11.99
2018-10-06T01:49:28.286Z,12.08
2018-10-06T01:50:28.239Z,12.12
2018-10-06T01:51:28.192Z,12.08
2018-10-06T01:52:28.151Z,11.99
2018-10-06T01:53:28.101Z,11.99
2018-10-06T01:54:28.055Z,11.99
2018-10-06T01:55:28.010Z,11.97
2018-10-06T01:56:27.965Z,11.96
2018-10-06T01:57:27.918Z,12.02
2018-10-06T01:58:27.873Z,12.02
2018-10-06T01:59:27.829Z,12.03
2018-10-06T02:00:27.783Z,11.96
2018-10-06T02:01:27.738Z,12.03
2018-10-06T02:02:27.691Z,12.03
2018-10-06T02:03:27.646Z,11.99
2018-10-06T02:04:27.601Z,12.00
2018-10-06T02:05:27.559Z,12.03
2018-10-06T02:06:27.509Z,11.93
2018-10-06T02:07:27.463Z,12.05
2018-10-06T02:08:27.424Z,12.00
2018-10-06T02:09:27.373Z,12.00
2018-10-06T02:10:27.325Z,12.05
2018-10-06T02:11:27.284Z,11.99
2018-10-06T02:12:27.237Z,11.93
2018-10-06T02:13:27.191Z,11.95
2018-10-06T02:14:27.143Z,11.99
2018-10-06T02:15:27.103Z,11.99
2018-10-06T02:16:27.056Z,11.96
2018-10-06T02:17:27.013Z,11.99
2018-10-06T02:18:26.962Z,11.93
2018-10-06T02:19:26.921Z,11.81
2018-10-06T02:20:26.872Z,11.91
2018-10-06T02:21:26.827Z,11.88
2018-10-06T02:22:26.794Z,11.85
2018-10-06T02:23:26.734Z,11.88
2018-10-06T02:24:26.691Z,11.88
2018-10-06T02:25:26.642Z,11.77
2018-10-06T02:26:26.597Z,11.74
2018-10-06T02:27:26.553Z,11.78
2018-10-06T02:28:26.507Z,11.78
2018-10-06T02:29:26.462Z,11.67
2018-10-06T02:30:26.417Z,11.73
2018-10-06T02:31:26.371Z,11.76
2018-10-06T02:32:26.329Z,11.77
2018-10-06T02:33:26.278Z,11.76
2018-10-06T02:34:26.273Z,11.67
2018-10-06T02:35:26.302Z,11.76
2018-10-06T02:36:26.148Z,11.71
2018-10-06T02:37:26.098Z,11.71
2018-10-06T02:38:26.050Z,11.71
2018-10-06T02:39:26.007Z,11.65
2018-10-06T02:40:25.961Z,11.71
2018-10-06T02:41:25.915Z,11.65
2018-10-06T02:42:25.876Z,11.73
2018-10-06T02:43:25.823Z,11.67
2018-10-06T02:44:25.777Z,11.70
2018-10-06T02:45:25.731Z,11.59
2018-10-06T02:46:25.686Z,11.71
2018-10-06T02:47:25.642Z,11.68
2018-10-06T02:48:25.598Z,11.63
2018-10-06T02:49:25.548Z,11.55
2018-10-06T02:50:25.505Z,11.58
2018-10-06T02:51:25.460Z,11.58
2018-10-06T02:52:25.417Z,11.59
2018-10-06T02:53:25.366Z,11.60
2018-10-06T02:54:25.321Z,11.53
2018-10-06T02:55:25.275Z,11.58
2018-10-06T02:56:25.229Z,11.48
2018-10-06T02:57:25.182Z,11.56
2018-10-06T02:58:25.137Z,11.51
2018-10-06T02:59:25.093Z,11.49
2018-10-06T03:00:25.046Z,11.44
2018-10-06T03:01:25.001Z,11.52
2018-10-06T03:02:24.953Z,11.44
2018-10-06T03:03:24.915Z,11.52
2018-10-06T03:04:24.863Z,11.45
2018-10-06T03:05:24.817Z,11.40
2018-10-06T03:06:24.772Z,11.52
2018-10-06T03:07:24.726Z,11.43
2018-10-06T03:08:24.682Z,11.49
2018-10-06T03:09:24.634Z,11.49
2018-10-06T03:10:24.588Z,11.51
2018-10-06T03:11:24.543Z,11.37
2018-10-06T03:12:24.499Z,11.58
2018-10-06T03:13:24.456Z,11.48
2018-10-06T03:14:24.419Z,11.51
2018-10-06T03:15:24.360Z,11.44
2018-10-06T03:16:24.321Z,11.49
2018-10-06T03:17:24.269Z,11.45
2018-10-06T03:18:24.221Z,11.51
2018-10-06T03:19:24.177Z,11.43
2018-10-06T03:20:24.132Z,11.43
2018-10-06T03:21:24.089Z,11.49
2018-10-06T03:22:24.050Z,11.48
2018-10-06T03:23:24.000Z,11.43
2018-10-06T03:24:23.953Z,11.44
2018-10-06T03:25:23.907Z,11.43
2018-10-06T03:26:23.857Z,11.41
2018-10-06T03:27:23.815Z,11.41
2018-10-06T03:28:23.765Z,11.48
2018-10-06T03:29:23.717Z,11.44
2018-10-06T03:30:23.678Z,11.40
2018-10-06T03:31:23.626Z,11.40
2018-10-06T03:32:23.584Z,11.44
2018-10-06T03:33:23.535Z,11.40
2018-10-06T03:34:23.492Z,11.40
2018-10-06T03:35:23.444Z,11.37
2018-10-06T03:36:23.397Z,11.44
2018-10-06T03:37:23.360Z,11.40
2018-10-06T03:38:23.311Z,11.34
2018-10-06T03:39:23.259Z,11.43
2018-10-06T03:40:23.221Z,11.37
2018-10-06T03:41:23.171Z,11.41
2018-10-06T03:42:23.125Z,11.41
2018-10-06T03:43:23.077Z,11.34
2018-10-06T03:44:23.032Z,11.40
2018-10-06T03:45:22.984Z,11.34
2018-10-06T03:46:22.944Z,11.44
2018-10-06T03:47:22.897Z,11.34
2018-10-06T03:48:22.860Z,11.34
2018-10-06T03:49:22.806Z,11.35
2018-10-06T03:50:22.758Z,11.41
2018-10-06T03:51:22.710Z,11.43
2018-10-06T03:52:22.664Z,11.33
2018-10-06T03:53:22.624Z,11.35
2018-10-06T03:54:22.573Z,11.33
2018-10-06T03:55:22.537Z,11.43
2018-10-06T03:56:22.480Z,11.35
2018-10-06T03:57:22.437Z,11.37
2018-10-06T03:58:22.391Z,11.44
2018-10-06T03:59:22.345Z,11.30
2018-10-06T04:00:22.299Z,11.38
2018-10-06T04:01:22.257Z,11.41
2018-10-06T04:02:22.208Z,11.25
2018-10-06T04:03:22.158Z,11.30
2018-10-06T04:04:22.115Z,11.43
2018-10-06T04:05:22.068Z,11.37
2018-10-06T04:06:22.027Z,11.26
2018-10-06T04:07:21.976Z,11.33
2018-10-06T04:08:21.936Z,11.37
2018-10-06T04:09:21.886Z,11.27
2018-10-06T04:10:21.839Z,11.40
2018-10-06T04:11:21.795Z,11.34
2018-10-06T04:12:21.748Z,11.23
2018-10-06T04:13:21.701Z,11.31
2018-10-06T04:14:21.656Z,11.23
2018-10-06T04:15:21.615Z,11.20
2018-10-06T04:16:21.579Z,11.27
2018-10-06T04:17:21.521Z,11.23
2018-10-06T04:18:21.473Z,11.26
2018-10-06T04:19:21.440Z,11.27
2018-10-06T04:20:21.381Z,11.25
2018-10-06T04:21:21.334Z,11.31
2018-10-06T04:22:21.289Z,11.26
2018-10-06T04:23:21.247Z,11.27
2018-10-06T04:24:21.197Z,11.27
2018-10-06T04:25:21.150Z,11.25
2018-10-06T04:26:21.106Z,11.30
2018-10-06T04:27:21.062Z,11.20
2018-10-06T04:28:21.022Z,11.20
2018-10-06T04:29:20.967Z,11.25
2018-10-06T04:30:20.923Z,11.25
2018-10-06T04:31:20.876Z,11.22
2018-10-06T04:32:20.830Z,11.20
2018-10-06T04:33:20.783Z,11.15
2018-10-06T04:34:20.736Z,11.19
2018-10-06T04:35:20.693Z,11.19
2018-10-06T04:36:20.649Z,11.18
2018-10-06T04:37:20.604Z,11.04
2018-10-06T04:38:20.581Z,11.08
2018-10-06T04:39:20.513Z,11.00
2018-10-06T04:40:20.466Z,11.04
2018-10-06T04:41:20.418Z,11.12
2018-10-06T04:42:20.382Z,11.05
2018-10-06T04:43:20.326Z,11.04
2018-10-06T04:44:20.285Z,11.02
2018-10-06T04:45:20.234Z,11.04
2018-10-06T04:46:20.192Z,11.01
2018-10-06T04:47:20.146Z,11.05
2018-10-06T04:48:20.098Z,11.05
2018-10-06T04:49:20.055Z,10.90
2018-10-06T04:50:20.022Z,10.89
2018-10-06T04:51:19.958Z,10.86
2018-10-06T04:52:19.913Z,10.95
2018-10-06T04:53:19.955Z,10.92
2018-10-06T04:54:19.821Z,10.90
2018-10-06T04:55:19.774Z,10.92
2018-10-06T04:56:19.727Z,10.83
2018-10-06T04:57:19.681Z,10.80
2018-10-06T04:58:19.641Z,10.83
2018-10-06T04:59:19.591Z,10.83
2018-10-06T05:00:19.548Z,10.83
2018-10-06T05:01:19.499Z,10.77
2018-10-06T05:02:19.451Z,10.77
2018-10-06T05:03:19.417Z,10.72
2018-10-06T05:04:19.360Z,10.80
2018-10-06T05:05:19.312Z,10.77
2018-10-06T05:06:19.269Z,10.71
2018-10-06T05:07:19.223Z,10.75
2018-10-06T05:08:19.180Z,10.72
2018-10-06T05:09:19.130Z,10.72
2018-10-06T05:10:19.087Z,10.72
2018-10-06T05:11:19.036Z,10.64
2018-10-06T05:12:18.997Z,10.64
2018-10-06T05:13:18.945Z,10.59
2018-10-06T05:14:18.904Z,10.58
2018-10-06T05:15:18.853Z,10.64
2018-10-06T05:16:18.809Z,10.65
2018-10-06T05:17:18.763Z,10.61
2018-10-06T05:18:18.716Z,10.58
2018-10-06T05:19:18.668Z,10.58
2018-10-06T05:20:18.622Z,10.65
2018-10-06T05:21:18.584Z,10.61
2018-10-06T05:22:18.532Z,10.58
2018-10-06T05:23:18.489Z,10.53
2018-10-06T05:24:18.438Z,10.53
2018-10-06T05:25:18.396Z,10.53
2018-10-06T05:26:18.345Z,10.58
2018-10-06T05:27:18.300Z,10.46
2018-10-06T05:28:18.254Z,10.51
2018-10-06T05:29:18.208Z,10.51
2018-10-06T05:30:18.162Z,10.48
2018-10-06T05:31:18.116Z,10.55
2018-10-06T05:32:18.069Z,10.51
2018-10-06T05:33:18.022Z,10.53
2018-10-06T05:34:17.976Z,10.48
2018-10-06T05:35:17.934Z,10.45
2018-10-06T05:36:17.888Z,10.38
2018-10-06T05:37:17.838Z,10.41
2018-10-06T05:38:17.792Z,10.53
2018-10-06T05:39:17.773Z,10.48
2018-10-06T05:40:17.712Z,10.48
2018-10-06T05:41:17.660Z,10.48
2018-10-06T05:42:17.619Z,10.53
2018-10-06T05:43:17.561Z,10.48
2018-10-06T05:44:17.515Z,10.38
2018-10-06T05:45:17.468Z,10.42
2018-10-06T05:46:17.486Z,10.36
2018-10-06T05:47:17.377Z,10.41
2018-10-06T05:48:17.330Z,10.42
2018-10-06T05:49:17.282Z,10.31
2018-10-06T05:50:17.238Z,10.41
2018-10-06T05:51:17.192Z,10.34
2018-10-06T05:52:17.147Z,10.38
2018-10-06T05:53:17.096Z,10.43
2018-10-06T05:54:17.058Z,10.46
2018-10-06T05:55:17.005Z,10.42
2018-10-06T05:56:16.973Z,10.34
2018-10-06T05:57:16.916Z,10.34
2018-10-06T05:58:16.865Z,10.39
2018-10-06T05:59:16.819Z,10.39
2018-10-06T06:00:16.776Z,10.34
2018-10-06T06:01:16.729Z,10.33
2018-10-06T06:02:16.681Z,10.36
2018-10-06T06:03:16.637Z,10.30
2018-10-06T06:04:16.589Z,10.33
2018-10-06T06:05:16.542Z,10.27
2018-10-06T06:06:16.501Z,10.41
2018-10-06T06:07:16.450Z,10.31
2018-10-06T06:08:16.405Z,10.38
2018-10-06T06:09:16.374Z,10.41
2018-10-06T06:10:16.310Z,10.31
2018-10-06T06:11:16.263Z,10.38
2018-10-06T06:12:16.220Z,10.34
2018-10-06T06:13:16.175Z,10.36
2018-10-06T06:14:16.124Z,10.36
2018-10-06T06:15:16.078Z,10.42
2018-10-06T06:16:16.032Z,10.39
2018-10-06T06:17:15.997Z,10.33
2018-10-06T06:18:15.939Z,10.34
2018-10-06T06:19:15.912Z,10.38
2018-10-06T06:20:15.847Z,10.39
2018-10-06T06:21:15.802Z,10.38
2018-10-06T06:22:15.754Z,10.34
2018-10-06T06:23:15.707Z,10.41
2018-10-06T06:24:15.663Z,10.38
2018-10-06T06:25:15.618Z,10.36
2018-10-06T06:26:15.570Z,10.36
2018-10-06T06:27:15.524Z,10.45
2018-10-06T06:28:15.477Z,10.34
2018-10-06T06:29:15.429Z,10.42
2018-10-06T06:30:15.387Z,10.46
2018-10-06T06:31:15.401Z,10.48
2018-10-06T06:32:15.356Z,10.48
2018-10-06T06:33:15.248Z,10.45
2018-10-06T06:34:15.199Z,10.57
2018-10-06T06:35:15.151Z,10.49
2018-10-06T06:36:15.107Z,10.49
2018-10-06T06:37:15.064Z,10.46
2018-10-06T06:38:15.099Z,10.45
2018-10-06T06:39:14.969Z,10.57
2018-10-06T06:40:15.791Z,10.48
2018-10-06T06:41:14.880Z,10.58
2018-10-06T06:42:14.831Z,10.58
2018-10-06T06:43:14.786Z,10.61
2018-10-06T06:44:14.960Z,10.64
2018-10-06T06:45:14.690Z,10.59
2018-10-06T06:46:14.643Z,10.76
2018-10-06T06:47:14.602Z,10.75
2018-10-06T06:48:14.554Z,10.76
2018-10-06T06:49:14.590Z,10.76
2018-10-06T06:50:14.461Z,10.83
2018-10-06T06:51:14.413Z,10.82
2018-10-06T06:52:14.367Z,10.84
2018-10-06T06:53:14.320Z,10.87
2018-10-06T06:54:14.472Z,11.04
2018-10-06T06:55:14.230Z,11.04
2018-10-06T06:56:14.187Z,11.16
2018-10-06T06:57:14.136Z,11.19
2018-10-06T06:58:14.093Z,11.26
2018-10-06T06:59:14.045Z,11.30
2018-10-06T07:00:14.008Z,11.41
2018-10-06T07:01:13.953Z,11.43
2018-10-06T07:02:14.042Z,11.44
2018-10-06T07:03:13.862Z,11.41
2018-10-06T07:04:13.816Z,11.59
2018-10-06T07:05:13.770Z,11.60
2018-10-06T07:06:13.725Z,11.67
2018-10-06T07:07:14.344Z,11.80
2018-10-06T07:08:13.633Z,11.95
2018-10-06T07:09:13.598Z,11.96
2018-10-06T07:10:13.542Z,12.03
2018-10-06T07:11:13.496Z,12.03
2018-10-06T07:12:13.916Z,12.11
2018-10-06T07:13:13.403Z,12.18
2018-10-06T07:14:13.360Z,12.26
2018-10-06T07:15:13.315Z,12.40
2018-10-06T07:16:13.267Z,12.43
2018-10-06T07:17:14.019Z,12.51
2018-10-06T07:18:13.177Z,12.61
2018-10-06T07:19:13.134Z,12.66
2018-10-06T07:20:13.088Z,12.75
2018-10-06T07:21:13.040Z,12.90
2018-10-06T07:22:13.072Z,13.03
2018-10-06T07:23:12.956Z,13.19
2018-10-06T07:24:12.961Z,13.36
2018-10-06T07:25:12.934Z,13.67
2018-10-06T07:26:12.819Z,13.98
2018-10-06T07:27:12.780Z,14.37
2018-10-06T07:28:14.982Z,14.66
2018-10-06T07:29:12.683Z,14.93
2018-10-06T07:30:12.639Z,15.12
2018-10-06T07:31:12.607Z,15.44
2018-10-06T07:32:12.545Z,15.60
2018-10-06T07:33:12.504Z,15.78
2018-10-06T07:34:12.459Z,15.88
2018-10-06T07:35:12.415Z,16.18
2018-10-06T07:36:12.376Z,16.32
2018-10-06T07:37:12.323Z,16.37
2018-10-06T07:38:12.277Z,16.50
2018-10-06T07:39:12.238Z,16.59
2018-10-06T07:40:12.190Z,16.65
2018-10-06T07:41:12.146Z,16.73
2018-10-06T07:42:12.103Z,16.82
2018-10-06T07:43:12.058Z,17.01
2018-10-06T07:44:12.013Z,17.01
2018-10-06T07:45:11.969Z,17.07
2018-10-06T07:46:11.929Z,17.23
2018-10-06T07:47:11.882Z,17.27
2018-10-06T07:48:11.837Z,17.38
2018-10-06T07:49:11.792Z,17.23
2018-10-06T07:50:11.758Z,17.31
2018-10-06T07:51:11.707Z,17.44
2018-10-06T07:52:11.669Z,17.47
2018-10-06T07:53:11.754Z,17.54
2018-10-06T07:54:11.574Z,17.71
2018-10-06T07:55:11.531Z,17.87
2018-10-06T07:56:11.487Z,17.97
2018-10-06T07:57:11.563Z,18.06
2018-10-06T07:58:11.399Z,18.08
2018-10-06T07:59:11.557Z,18.24
2018-10-06T08:00:11.380Z,18.27
2018-10-06T08:01:11.328Z,18.33
2018-10-06T08:02:11.229Z,18.43
2018-10-06T08:03:11.189Z,18.64
2018-10-06T08:04:11.140Z,18.73
2018-10-06T08:05:11.104Z,18.73
2018-10-06T08:06:11.087Z,18.86
2018-10-06T08:07:11.020Z,18.98
2018-10-06T08:08:10.974Z,19.04
2018-10-06T08:09:10.925Z,19.19
2018-10-06T08:10:10.881Z,19.22
2018-10-06T08:11:10.841Z,19.42
2018-10-06T08:12:10.795Z,19.48
2018-10-06T08:13:10.756Z,19.56
2018-10-06T08:14:10.714Z,19.59
2018-10-06T08:15:10.673Z,19.78
2018-10-06T08:16:10.626Z,19.71
2018-10-06T08:17:10.583Z,19.77
2018-10-06T08:18:10.539Z,19.90
2018-10-06T08:19:10.499Z,19.99
2018-10-06T08:20:10.455Z,20.04
2018-10-06T08:21:10.414Z,20.17
2018-10-06T08:22:10.371Z,20.26
2018-10-06T08:23:10.333Z,20.24
2018-10-06T08:24:10.287Z,20.33
2018-10-06T08:25:10.251Z,20.44
2018-10-06T08:26:10.202Z,20.53
2018-10-06T08:27:10.161Z,20.58
2018-10-06T08:28:10.123Z,20.53
2018-10-06T08:29:10.079Z,20.67
2018-10-06T08:30:10.034Z,20.77
2018-10-06T08:31:09.993Z,20.88
2018-10-06T08:32:09.950Z,20.96
2018-10-06T08:33:09.909Z,20.95
2018-10-06T08:34:09.881Z,21.15
2018-10-06T08:35:09.826Z,21.19
2018-10-06T08:36:09.785Z,21.30
2018-10-06T08:37:09.742Z,21.29
2018-10-06T08:38:09.702Z,21.38
2018-10-06T08:39:09.660Z,21.51
2018-10-06T08:40:09.622Z,21.60
2018-10-06T08:41:09.580Z,21.68
2018-10-06T08:42:09.534Z,21.83
2018-10-06T08:43:09.497Z,21.85
2018-10-06T08:44:09.457Z,22.06
2018-10-06T08:45:09.413Z,22.03
2018-10-06T08:46:09.370Z,22.21
2018-10-06T08:47:09.329Z,22.26
2018-10-06T08:48:09.288Z,22.30
2018-10-06T08:49:09.249Z,22.40
2018-10-06T08:50:09.206Z,22.49
2018-10-06T08:51:09.164Z,22.58
2018-10-06T08:52:09.125Z,22.63
2018-10-06T08:53:09.082Z,22.61
2018-10-06T08:54:09.040Z,22.70
2018-10-06T08:55:09.009Z,22.71
2018-10-06T08:56:09.060Z,22.76
2018-10-06T08:57:08.916Z,22.74
2018-10-06T08:58:08.878Z,22.77
2018-10-06T08:59:08.834Z,22.83
2018-10-06T09:00:08.798Z,22.83
2018-10-06T09:01:08.756Z,22.78
2018-10-06T09:02:08.714Z,22.80
2018-10-06T09:03:08.672Z,22.86
2018-10-06T09:04:08.680Z,22.89
2018-10-06T09:05:08.619Z,22.93
2018-10-06T09:06:08.551Z,22.93
2018-10-06T09:07:08.509Z,22.96
2018-10-06T09:08:08.468Z,23.02
2018-10-06T09:09:08.426Z,22.96
2018-10-06T09:10:08.385Z,23.02
2018-10-06T09:11:08.344Z,23.02
2018-10-06T09:12:08.310Z,22.96
2018-10-06T09:13:08.264Z,22.95
2018-10-06T09:14:08.225Z,23.02
2018-10-06T09:15:08.181Z,22.99
2018-10-06T09:16:08.146Z,23.06
2018-10-06T09:17:08.102Z,23.06
2018-10-06T09:18:08.060Z,23.02
2018-10-06T09:19:08.020Z,23.07
2018-10-06T09:20:07.979Z,23.02
2018-10-06T09:21:07.935Z,23.02
2018-10-06T09:22:07.897Z,23.08
2018-10-06T09:23:07.863Z,23.02
2018-10-06T09:24:07.822Z,23.10
2018-10-06T09:25:07.776Z,23.13
2018-10-06T09:26:07.735Z,23.07
2018-10-06T09:27:07.695Z,23.10
2018-10-06T09:28:07.680Z,23.13
2018-10-06T09:29:07.614Z,23.11
2018-10-06T09:30:07.579Z,23.10
2018-10-06T09:31:07.535Z,23.14
2018-10-06T09:32:07.493Z,23.13
2018-10-06T09:33:07.451Z,23.16
2018-10-06T09:34:07.520Z,23.28
2018-10-06T09:35:07.371Z,23.18
2018-10-06T09:36:07.335Z,23.28
2018-10-06T09:37:07.292Z,23.26
2018-10-06T09:38:07.251Z,23.23
2018-10-06T09:39:07.210Z,23.33
2018-10-06T09:40:07.172Z,23.36
2018-10-06T09:41:07.133Z,23.37
2018-10-06T09:42:07.295Z,23.36
2018-10-06T09:43:07.052Z,23.40
2018-10-06T09:44:07.014Z,23.44
2018-10-06T09:45:06.971Z,23.44
2018-10-06T09:46:06.930Z,23.54
2018-10-06T09:47:06.891Z,23.51
2018-10-06T09:48:06.916Z,23.54
2018-10-06T09:49:06.814Z,23.64
2018-10-06T09:50:06.772Z,23.62
2018-10-06T09:51:06.728Z,23.64
2018-10-06T09:52:06.692Z,23.59
2018-10-06T09:53:06.650Z,23.63
2018-10-06T09:54:06.610Z,23.63
2018-10-06T09:55:06.572Z,23.67
2018-10-06T09:56:06.530Z,23.69
2018-10-06T09:57:06.489Z,23.70
2018-10-06T09:58:06.448Z,23.70
2018-10-06T09:59:06.483Z,23.74
2018-10-06T10:00:06.370Z,23.76
2018-10-06T10:01:06.330Z,23.69
2018-10-06T10:02:06.287Z,23.81
2018-10-06T10:03:06.365Z,23.76
2018-10-06T10:04:06.209Z,23.67
2018-10-06T10:05:06.170Z,23.76
2018-10-06T10:06:06.127Z,23.79
2018-10-06T10:07:06.094Z,23.71
2018-10-06T10:08:06.049Z,23.70
2018-10-06T10:09:06.007Z,23.76
2018-10-06T10:10:05.977Z,23.76
2018-10-06T10:11:05.928Z,23.86
2018-10-06T10:12:06.771Z,23.81
2018-10-06T10:13:05.851Z,23.89
2018-10-06T10:14:05.808Z,23.74
2018-10-06T10:15:05.767Z,23.81
2018-10-06T10:16:05.730Z,23.89
2018-10-06T10:17:05.803Z,23.77
2018-10-06T10:18:05.782Z,23.74
2018-10-06T10:19:05.610Z,23.79
2018-10-06T10:20:05.569Z,23.79
2018-10-06T10:21:05.526Z,23.76
2018-10-06T10:22:05.607Z,23.86
2018-10-06T10:23:05.488Z,23.84
2018-10-06T10:24:05.408Z,23.86
2018-10-06T10:25:05.370Z,23.88
2018-10-06T10:26:05.327Z,23.84
2018-10-06T10:27:05.287Z,23.89
2018-10-06T10:28:05.246Z,23.86
2018-10-06T10:29:05.207Z,23.88
2018-10-06T10:30:05.165Z,23.88
2018-10-06T10:31:05.127Z,23.82
2018-10-06T10:32:05.087Z,23.81
2018-10-06T10:33:05.050Z,23.73
2018-10-06T10:34:05.005Z,23.71
2018-10-06T10:35:04.965Z,23.76
2018-10-06T10:36:04.925Z,23.67
2018-10-06T10:37:04.891Z,23.58
2018-10-06T10:38:04.860Z,23.64
2018-10-06T10:39:04.848Z,23.56
2018-10-06T10:40:04.766Z,23.52
2018-10-06T10:41:04.723Z,23.51
2018-10-06T10:42:04.687Z,23.47
2018-10-06T10:43:04.645Z,23.49
2018-10-06T10:44:04.697Z,23.44
2018-10-06T10:45:04.564Z,23.45
2018-10-06T10:46:04.526Z,23.44
2018-10-06T10:47:04.485Z,23.45
2018-10-06T10:48:04.445Z,23.40
2018-10-06T10:49:04.402Z,23.47
2018-10-06T10:50:04.429Z,23.42
2018-10-06T10:51:04.330Z,23.39
2018-10-06T10:52:04.285Z,23.37
2018-10-06T10:53:04.241Z,23.28
2018-10-06T10:54:04.202Z,23.32
2018-10-06T10:55:04.163Z,23.32
2018-10-06T10:56:04.120Z,23.37
2018-10-06T10:57:04.083Z,23.34
2018-10-06T10:58:04.044Z,23.42
2018-10-06T10:59:04.002Z,23.40
2018-10-06T11:00:04.094Z,23.25
2018-10-06T11:01:03.977Z,23.34
2018-10-06T11:02:03.880Z,23.37
2018-10-06T11:03:03.842Z,23.25
2018-10-06T11:04:03.801Z,23.26
2018-10-06T11:05:03.770Z,23.28
2018-10-06T11:06:03.716Z,23.21
2018-10-06T11:07:03.678Z,23.26
2018-10-06T11:08:03.638Z,23.21
2018-10-06T11:09:03.597Z,23.25
2018-10-06T11:10:03.559Z,23.18
2018-10-06T11:11:03.619Z,23.29
2018-10-06T11:12:03.475Z,23.18
2018-10-06T11:13:03.441Z,23.21
2018-10-06T11:14:03.395Z,23.25
2018-10-06T11:15:04.378Z,23.20
2018-10-06T11:16:03.314Z,23.21
2018-10-06T11:17:03.298Z,23.20
2018-10-06T11:18:03.231Z,23.20
2018-10-06T11:19:03.966Z,23.18
2018-10-06T11:20:03.153Z,23.25
2018-10-06T11:21:03.110Z,23.26
2018-10-06T11:22:03.070Z,23.20
2018-10-06T11:23:03.081Z,23.26
2018-10-06T11:24:02.989Z,23.26
2018-10-06T11:25:02.949Z,23.18
2018-10-06T11:26:02.914Z,23.25
2018-10-06T11:27:02.871Z,23.28
2018-10-06T11:28:02.830Z,23.18
2018-10-06T11:29:02.788Z,23.23
2018-10-06T11:30:02.755Z,23.23
2018-10-06T11:31:02.707Z,23.36
2018-10-06T11:32:02.669Z,23.39
2018-10-06T11:33:02.626Z,23.34
2018-10-06T11:34:02.585Z,23.34
2018-10-06T11:35:02.548Z,23.32
2018-10-06T11:36:02.512Z,23.33
2018-10-06T11:37:02.484Z,23.40
2018-10-06T11:38:02.441Z,23.44
2018-10-06T11:39:02.383Z,23.39
2018-10-06T11:40:02.343Z,23.44
2018-10-06T11:41:02.306Z,23.49
2018-10-06T11:42:02.261Z,23.39
2018-10-06T11:43:02.895Z,23.48
2018-10-06T11:44:02.182Z,23.49
2018-10-06T11:45:02.145Z,23.48
2018-10-06T11:46:02.102Z,23.54
2018-10-06T11:47:02.062Z,23.56
2018-10-06T11:48:02.021Z,23.54
2018-10-06T11:49:01.980Z,23.58
2018-10-06T11:50:02.580Z,23.58
2018-10-06T11:51:01.900Z,23.59
2018-10-06T11:52:01.857Z,23.62
2018-10-06T11:53:01.817Z,23.66
2018-10-06T11:54:01.781Z,23.71
2018-10-06T11:55:01.737Z,23.66
2018-10-06T11:56:01.700Z,23.69
2018-10-06T11:57:01.659Z,23.73
2018-10-06T11:58:02.234Z,23.74
2018-10-06T11:59:01.580Z,23.81
2018-10-06T12:00:01.567Z,23.85
2018-10-06T12:01:01.499Z,23.89
2018-10-06T12:02:01.456Z,23.81
2018-10-06T12:04:01.394Z,23.88
2018-10-06T12:05:01.339Z,23.95
2018-10-06T12:06:01.295Z,23.96
2018-10-06T12:07:01.255Z,23.99
2018-10-06T12:08:01.223Z,24.03
2018-10-06T12:09:01.174Z,23.99
2018-10-06T12:10:01.137Z,24.10
2018-10-06T12:11:01.095Z,24.13
2018-10-06T12:12:02.506Z,24.16
2018-10-06T12:13:01.481Z,24.11
2018-10-06T12:14:00.974Z,24.10
2018-10-06T12:15:00.936Z,24.24
2018-10-06T12:16:00.897Z,24.26
2018-10-06T12:17:01.143Z,24.24
2018-10-06T12:18:00.818Z,24.26
2018-10-06T12:19:00.775Z,24.28
2018-10-06T12:20:00.810Z,24.38
2018-10-06T12:21:00.701Z,24.37
2018-10-06T12:22:00.655Z,24.47
2018-10-06T12:23:00.619Z,24.55
2018-10-06T12:24:00.579Z,24.61
2018-10-06T12:25:00.604Z,24.63
2018-10-06T12:26:00.533Z,24.69
2018-10-06T12:27:00.458Z,24.66
2018-10-06T12:28:00.418Z,24.77
2018-10-06T12:29:00.378Z,24.92
2018-10-06T12:30:00.405Z,24.89
2018-10-06T12:31:00.304Z,24.85
2018-10-06T12:32:00.270Z,24.86
2018-10-06T12:33:00.217Z,24.97
2018-10-06T12:34:00.183Z,25.04
2018-10-06T12:35:00.199Z,24.99
2018-10-06T12:36:00.101Z,25.11
2018-10-06T12:37:00.064Z,25.21
2018-10-06T12:38:00.021Z,25.15
2018-10-06T12:38:59.985Z,25.22
2018-10-06T12:40:00.047Z,25.33
2018-10-06T12:40:59.902Z,25.37
2018-10-06T12:41:59.873Z,25.24
2018-10-06T12:42:59.826Z,25.29
2018-10-06T12:43:59.784Z,25.16
2018-10-06T12:44:59.745Z,25.11
2018-10-06T12:45:59.706Z,25.12
2018-10-06T12:46:59.668Z,24.96
2018-10-06T12:47:59.629Z,24.94
2018-10-06T12:48:59.592Z,24.99
2018-10-06T12:49:59.597Z,25.01
2018-10-06T12:50:59.516Z,24.93
2018-10-06T12:51:59.471Z,24.89
2018-10-06T12:52:59.433Z,24.93